Time;durP1;ratioP1;P1;durP2;ratioP2;P2;SDS_P1;SDS_P2;PMS_P1;PMS_P2;Temp;Humidity;BMP_temperature;BMP_pressure;BME280_temperature;BME280_humidity;BME280_pressure;Samples;Min_cycle;Max_cycle;Signal;HPM_P1;HPM_P2
2023/02/14 17:18:01;;;;;;;30.63;15.38;;;6.00;99.90;;;;;;5170187;27;20356;-60
2023/02/14 17:20:28;;;;;;;32.22;17.67;;;5.80;99.90;;;;;;5152324;27;20498;-60
2023/02/14 17:22:54;;;;;;;37.08;20.05;;;5.80;99.90;;;;;;5170818;27;20017;-60
2023/02/14 17:25:20;;;;;;;42.00;22.38;;;5.90;99.90;;;;;;5170594;27;20093;-60
2023/02/14 17:27:46;;;;;;;41.53;21.15;;;6.00;99.90;;;;;;5170325;27;20126;-60
2023/02/14 17:30:13;;;;;;;44.58;21.92;;;6.00;99.90;;;;;;5170169;27;20479;-60
2023/02/14 17:32:39;;;;;;;36.55;18.67;;;6.10;99.90;;;;;;5159383;27;20502;-60
2023/02/14 17:35:07;;;;;;;30.67;17.33;;;6.10;99.90;;;;;;5158065;27;20106;-60
2023/02/14 17:37:34;;;;;;;27.98;15.05;;;6.20;99.90;;;;;;5160544;27;20383;-60
2023/02/14 17:39:59;;;;;;;29.95;16.60;;;6.20;99.90;;;;;;5148908;27;20023;-61
2023/02/14 17:42:25;;;;;;;30.98;15.50;;;6.20;99.90;;;;;;5153829;27;20118;-61
2023/02/14 17:44:51;;;;;;;25.08;14.52;;;6.20;99.90;;;;;;5169606;27;20027;-61
2023/02/14 17:47:17;;;;;;;29.55;14.63;;;6.20;99.90;;;;;;5170660;27;20026;-61
2023/02/14 17:49:46;;;;;;;30.40;14.43;;;6.30;99.90;;;;;;5170593;27;20343;-60
2023/02/14 17:52:12;;;;;;;26.33;14.68;;;6.30;99.90;;;;;;5169685;27;20049;-63
2023/02/14 17:54:38;;;;;;;29.58;15.07;;;6.30;99.90;;;;;;5151336;27;20471;-61
2023/02/14 17:57:03;;;;;;;24.55;14.52;;;6.30;99.90;;;;;;5151341;27;20049;-60
2023/02/14 17:59:30;;;;;;;24.80;13.63;;;6.30;99.90;;;;;;5151179;27;20138;-60
2023/02/14 18:01:56;;;;;;;23.70;14.07;;;6.20;99.90;;;;;;5151381;27;20019;-61
2023/02/14 18:04:22;;;;;;;25.33;13.93;;;6.20;99.90;;;;;;5170307;27;20006;-63
2023/02/14 18:06:48;;;;;;;28.63;13.40;;;6.10;99.90;;;;;;5149991;27;20023;-60
2023/02/14 18:09:14;;;;;;;29.02;15.00;;;6.00;99.90;;;;;;5170328;27;20022;-60
2023/02/14 18:11:41;;;;;;;28.80;14.23;;;6.00;99.90;;;;;;5170274;27;20595;-60
2023/02/14 18:14:07;;;;;;;30.33;15.65;;;6.00;99.90;;;;;;5169249;27;20348;-60
2023/02/14 18:16:35;;;;;;;26.10;15.73;;;5.90;99.90;;;;;;5169907;27;20073;-60
2023/02/14 18:19:02;;;;;;;31.92;17.85;;;5.80;99.90;;;;;;5169552;27;20019;-60
2023/02/14 18:21:33;;;;;;;31.60;16.38;;;5.70;99.90;;;;;;5150606;27;20023;-61
2023/02/14 18:23:59;;;;;;;29.10;15.40;;;5.60;99.90;;;;;;5169446;27;20369;-62
2023/02/14 18:26:25;;;;;;;32.85;16.33;;;5.60;99.90;;;;;;5169991;27;20014;-60
2023/02/14 18:28:51;;;;;;;29.27;14.98;;;5.60;99.90;;;;;;5138204;27;20040;-61
2023/02/14 18:31:18;;;;;;;30.60;16.05;;;5.50;99.90;;;;;;5155910;27;20123;-62
2023/02/14 18:33:46;;;;;;;31.27;14.70;;;5.40;99.90;;;;;;5155860;27;20424;-61
2023/02/14 18:36:14;;;;;;;28.58;13.43;;;5.40;99.90;;;;;;5154834;27;20094;-61
2023/02/14 18:38:42;;;;;;;28.52;14.80;;;5.30;99.90;;;;;;5155610;27;20015;-60
2023/02/14 18:41:10;;;;;;;29.92;15.40;;;5.30;99.90;;;;;;5154668;27;20077;-61
2023/02/14 18:43:37;;;;;;;31.27;15.73;;;5.20;99.90;;;;;;5155802;27;20128;-61
2023/02/14 18:46:04;;;;;;;24.52;14.32;;;5.20;99.90;;;;;;5136745;27;20019;-61
2023/02/14 18:48:30;;;;;;;26.50;13.55;;;5.20;99.90;;;;;;5136343;27;20019;-62
2023/02/14 18:51:02;;;;;;;31.23;14.40;;;5.20;99.90;;;;;;5153529;27;20050;-60
2023/02/14 18:53:28;;;;;;;27.90;15.35;;;5.20;99.90;;;;;;5153554;27;20026;-59
2023/02/14 18:55:54;;;;;;;32.30;17.05;;;5.10;99.90;;;;;;5154139;27;20027;-60
2023/02/14 18:58:19;;;;;;;29.45;16.13;;;5.10;99.90;;;;;;5155317;27;20026;-60
2023/02/14 19:00:45;;;;;;;28.52;17.17;;;5.00;99.90;;;;;;5136752;27;20027;-61
2023/02/14 19:03:11;;;;;;;29.95;15.40;;;5.00;99.90;;;;;;5154129;27;20019;-60
2023/02/14 19:05:37;;;;;;;31.98;15.90;;;4.90;99.90;;;;;;5155349;27;20019;-60
2023/02/14 19:08:04;;;;;;;29.70;16.08;;;4.80;99.90;;;;;;5136456;27;20379;-60
2023/02/14 19:10:30;;;;;;;29.73;16.92;;;4.80;99.90;;;;;;5135827;27;20023;-60
2023/02/14 19:12:56;;;;;;;24.70;14.20;;;4.70;99.90;;;;;;5136153;27;20029;-61
2023/02/14 19:15:21;;;;;;;30.40;14.70;;;4.60;99.90;;;;;;5154722;27;20011;-60
2023/02/14 19:17:47;;;;;;;29.23;14.45;;;4.60;99.90;;;;;;5153874;27;20106;-60
2023/02/14 19:20:13;;;;;;;30.85;14.65;;;4.60;99.90;;;;;;5154979;27;20101;-60
2023/02/14 19:22:40;;;;;;;31.20;14.43;;;4.60;99.90;;;;;;5154805;27;20022;-60
2023/02/14 19:25:06;;;;;;;31.15;16.08;;;4.50;99.90;;;;;;5153647;27;20033;-60
2023/02/14 19:27:32;;;;;;;29.50;15.23;;;4.50;99.90;;;;;;5136311;27;20022;-60
2023/02/14 19:29:59;;;;;;;31.67;15.38;;;4.40;99.90;;;;;;5154502;27;20475;-60
2023/02/14 19:32:25;;;;;;;38.22;16.92;;;4.40;99.90;;;;;;5154221;27;20032;-60
2023/02/14 19:34:50;;;;;;;34.90;18.08;;;4.30;99.90;;;;;;5135665;27;20391;-60
2023/02/14 19:37:16;;;;;;;33.00;16.65;;;4.30;99.90;;;;;;5154655;27;20084;-60
2023/02/14 19:39:45;;;;;;;28.70;15.38;;;4.20;99.90;;;;;;5152414;27;20023;-60
2023/02/14 19:42:10;;;;;;;34.65;17.95;;;4.20;99.90;;;;;;5154183;27;20042;-61
2023/02/14 19:44:36;;;;;;;32.83;15.18;;;4.10;99.90;;;;;;5153811;27;20023;-60
2023/02/14 19:47:03;;;;;;;38.60;17.98;;;4.10;99.90;;;;;;5154033;27;20019;-60
2023/02/14 19:49:29;;;;;;;35.08;16.30;;;4.00;99.90;;;;;;5154407;27;20019;-60
2023/02/14 19:51:56;;;;;;;38.50;17.90;;;4.00;99.90;;;;;;5153227;27;20034;-60
2023/02/14 19:54:24;;;;;;;35.88;18.02;;;4.00;99.90;;;;;;5134858;27;20050;-61
2023/02/14 19:56:51;;;;;;;35.88;18.48;;;4.00;99.90;;;;;;5153715;27;20027;-60
2023/02/14 19:59:21;;;;;;;45.97;19.80;;;3.90;99.90;;;;;;5153748;27;20041;-60
2023/02/14 20:01:52;;;;;;;39.77;17.73;;;3.90;99.90;;;;;;5153707;27;20161;-60
2023/02/14 20:04:23;;;;;;;35.92;18.23;;;3.80;99.90;;;;;;5153612;27;20023;-60
2023/02/14 20:06:49;;;;;;;;;;;3.80;99.90;;;;;;5153475;27;20026;-61
2023/02/14 20:09:15;;;;;;;33.45;16.65;;;3.80;99.90;;;;;;5153888;27;19903;-61
2023/02/14 20:11:49;;;;;;;32.08;16.63;;;3.70;99.90;;;;;;5153682;27;20084;-61
2023/02/14 20:14:17;;;;;;;32.67;17.70;;;3.70;99.90;;;;;;5153092;27;20023;-61
2023/02/14 20:16:43;;;;;;;33.33;17.73;;;3.60;99.90;;;;;;5133749;27;20418;-61
2023/02/14 20:19:11;;;;;;;28.63;17.15;;;3.60;99.90;;;;;;5153415;27;20467;-60
2023/02/14 20:21:40;;;;;;;39.35;19.52;;;3.50;99.90;;;;;;5152987;27;20025;-60
2023/02/14 20:24:07;;;;;;;32.13;16.38;;;3.40;99.90;;;;;;5153276;27;20049;-61
2023/02/14 20:26:34;;;;;;;29.85;15.60;;;3.40;99.90;;;;;;5134398;27;20030;-61
2023/02/14 20:29:03;;;;;;;31.02;16.25;;;3.30;99.90;;;;;;5153368;27;20042;-61
2023/02/14 20:31:29;;;;;;;29.33;15.65;;;3.30;99.90;;;;;;5153552;27;20511;-62
2023/02/14 20:33:55;;;;;;;30.75;18.45;;;3.30;99.90;;;;;;5152434;27;20019;-61
2023/02/14 20:36:22;;;;;;;32.67;17.15;;;3.20;99.90;;;;;;5153345;27;20403;-61
2023/02/14 20:38:57;;;;;;;31.35;16.02;;;3.10;99.90;;;;;;5151751;27;20075;-61
2023/02/14 20:41:23;;;;;;;29.85;16.00;;;3.00;99.90;;;;;;5152527;27;20336;-61
2023/02/14 20:43:49;;;;;;;27.58;14.40;;;3.00;99.90;;;;;;5152706;27;20015;-61
2023/02/14 20:46:14;;;;;;;24.58;14.20;;;3.00;99.90;;;;;;5134832;27;20118;-61
2023/02/14 20:48:40;;;;;;;27.17;15.05;;;3.00;99.90;;;;;;5152630;27;20015;-61
2023/02/14 20:51:14;;;;;;;31.17;13.98;;;3.00;99.90;;;;;;5133843;27;20026;-61
2023/02/14 20:53:41;;;;;;;25.85;12.90;;;3.00;99.90;;;;;;5152777;27;20022;-61
2023/02/14 20:56:07;;;;;;;27.35;13.90;;;2.90;99.90;;;;;;5152111;27;20471;-61
2023/02/14 20:58:34;;;;;;;25.10;14.00;;;2.90;99.90;;;;;;5153168;27;20023;-61
2023/02/14 21:01:14;;;;;;;23.67;14.20;;;2.90;99.90;;;;;;5151587;27;20038;-62
2023/02/14 21:03:41;;;;;;;26.15;14.90;;;2.90;99.90;;;;;;5151135;27;20191;-61
2023/02/14 21:06:10;;;;;;;29.77;14.73;;;2.90;99.90;;;;;;5152811;27;20478;-61
2023/02/14 21:08:37;;;;;;;24.55;13.27;;;2.90;99.90;;;;;;5152178;27;20018;-61
2023/02/14 21:11:03;;;;;;;27.48;14.15;;;2.90;99.90;;;;;;5151944;27;20367;-61
